Terminal Aerodrome Forecast
Issued by NWS

Current Version | Previous Version | Graphics & Text | Print | Product List | Glossary On
Versions: 1 2 3 4 5 6 7 8 9 10 11 12 13 14 15 16 17 18 19 20 21 22
000
FTUS41 KILN 190542
TAFLCK
TAF
KLCK 190542Z 1906/2006 20006KT P6SM SCT100
     FM190900 26006KT P6SM BKN025
     FM191100 27006KT 3SM BR OVC012
     FM191500 28008KT P6SM SCT015
     FM191700 28008KT P6SM SCT025
     FM200000 25005KT P6SM SCT250=

USA.gov is the U.S. government's official web portal to all federal, state and local government web resources and services.